sensor_id;sensor_type;location;lat;lon;timestamp;P1;durP1;ratioP1;P2;durP2;ratioP2
9222;SDS011;7557;51.698;3.942;2023-04-25T00:00:21;16.73;;;4.83;;
9222;SDS011;7557;51.698;3.942;2023-04-25T00:02:50;13.23;;;4.67;;
9222;SDS011;7557;51.698;3.942;2023-04-25T00:05:17;12.33;;;4.03;;
9222;SDS011;7557;51.698;3.942;2023-04-25T00:07:48;9.10;;;4.10;;
9222;SDS011;7557;51.698;3.942;2023-04-25T00:10:15;11.00;;;4.10;;
9222;SDS011;7557;51.698;3.942;2023-04-25T00:12:42;8.77;;;3.87;;
9222;SDS011;7557;51.698;3.942;2023-04-25T00:15:10;12.37;;;3.70;;
9222;SDS011;7557;51.698;3.942;2023-04-25T00:17:38;7.80;;;3.27;;
9222;SDS011;7557;51.698;3.942;2023-04-25T00:20:07;10.97;;;4.57;;
9222;SDS011;7557;51.698;3.942;2023-04-25T00:22:35;13.73;;;3.50;;
9222;SDS011;7557;51.698;3.942;2023-04-25T00:25:03;10.77;;;4.33;;
9222;SDS011;7557;51.698;3.942;2023-04-25T00:27:31;7.33;;;4.23;;
9222;SDS011;7557;51.698;3.942;2023-04-25T00:29:59;9.13;;;3.87;;
9222;SDS011;7557;51.698;3.942;2023-04-25T00:32:26;8.37;;;3.80;;
9222;SDS011;7557;51.698;3.942;2023-04-25T00:34:54;7.23;;;3.33;;
9222;SDS011;7557;51.698;3.942;2023-04-25T00:37:24;5.13;;;3.80;;
9222;SDS011;7557;51.698;3.942;2023-04-25T00:39:51;9.33;;;4.50;;
9222;SDS011;7557;51.698;3.942;2023-04-25T00:42:21;6.33;;;3.47;;
9222;SDS011;7557;51.698;3.942;2023-04-25T00:44:49;9.37;;;3.63;;
9222;SDS011;7557;51.698;3.942;2023-04-25T00:50:39;7.93;;;3.87;;
9222;SDS011;7557;51.698;3.942;2023-04-25T00:53:09;6.97;;;3.87;;
9222;SDS011;7557;51.698;3.942;2023-04-25T00:55:36;9.87;;;3.13;;
9222;SDS011;7557;51.698;3.942;2023-04-25T00:58:03;8.80;;;3.73;;
9222;SDS011;7557;51.698;3.942;2023-04-25T01:00:30;6.67;;;3.30;;
9222;SDS011;7557;51.698;3.942;2023-04-25T01:02:57;6.27;;;3.43;;
9222;SDS011;7557;51.698;3.942;2023-04-25T01:05:27;11.37;;;4.90;;
9222;SDS011;7557;51.698;3.942;2023-04-25T01:07:55;13.07;;;4.30;;
9222;SDS011;7557;51.698;3.942;2023-04-25T01:10:24;10.07;;;4.23;;
9222;SDS011;7557;51.698;3.942;2023-04-25T01:12:51;11.20;;;4.13;;
9222;SDS011;7557;51.698;3.942;2023-04-25T01:15:18;12.00;;;4.47;;
9222;SDS011;7557;51.698;3.942;2023-04-25T01:17:46;8.53;;;3.97;;
9222;SDS011;7557;51.698;3.942;2023-04-25T01:20:14;7.33;;;4.10;;
9222;SDS011;7557;51.698;3.942;2023-04-25T01:22:43;8.43;;;4.10;;
9222;SDS011;7557;51.698;3.942;2023-04-25T01:25:11;12.20;;;4.40;;
9222;SDS011;7557;51.698;3.942;2023-04-25T01:27:38;11.40;;;4.87;;
9222;SDS011;7557;51.698;3.942;2023-04-25T01:30:07;8.33;;;4.67;;
9222;SDS011;7557;51.698;3.942;2023-04-25T01:32:35;7.97;;;4.17;;
9222;SDS011;7557;51.698;3.942;2023-04-25T01:35:04;12.17;;;4.10;;
9222;SDS011;7557;51.698;3.942;2023-04-25T01:37:34;5.83;;;3.93;;
9222;SDS011;7557;51.698;3.942;2023-04-25T01:40:04;13.63;;;4.37;;
9222;SDS011;7557;51.698;3.942;2023-04-25T01:42:32;13.63;;;4.63;;
9222;SDS011;7557;51.698;3.942;2023-04-25T01:44:59;7.10;;;4.23;;
9222;SDS011;7557;51.698;3.942;2023-04-25T01:47:27;12.77;;;4.50;;
9222;SDS011;7557;51.698;3.942;2023-04-25T01:49:54;12.03;;;4.50;;
9222;SDS011;7557;51.698;3.942;2023-04-25T01:52:22;9.43;;;3.90;;
9222;SDS011;7557;51.698;3.942;2023-04-25T01:54:49;10.73;;;4.40;;
9222;SDS011;7557;51.698;3.942;2023-04-25T01:57:18;7.40;;;3.60;;
9222;SDS011;7557;51.698;3.942;2023-04-25T01:59:46;8.30;;;3.63;;
9222;SDS011;7557;51.698;3.942;2023-04-25T02:02:13;8.90;;;3.87;;
9222;SDS011;7557;51.698;3.942;2023-04-25T02:04:40;5.93;;;3.57;;
9222;SDS011;7557;51.698;3.942;2023-04-25T02:07:08;5.70;;;3.47;;
9222;SDS011;7557;51.698;3.942;2023-04-25T02:09:35;7.27;;;3.20;;
9222;SDS011;7557;51.698;3.942;2023-04-25T02:12:02;8.43;;;4.17;;
9222;SDS011;7557;51.698;3.942;2023-04-25T02:14:31;8.93;;;3.60;;
9222;SDS011;7557;51.698;3.942;2023-04-25T02:16:59;12.13;;;3.50;;
9222;SDS011;7557;51.698;3.942;2023-04-25T02:19:26;6.53;;;3.73;;
9222;SDS011;7557;51.698;3.942;2023-04-25T02:21:53;7.13;;;3.60;;
9222;SDS011;7557;51.698;3.942;2023-04-25T02:24:22;5.07;;;2.73;;
9222;SDS011;7557;51.698;3.942;2023-04-25T02:26:49;6.03;;;2.83;;
9222;SDS011;7557;51.698;3.942;2023-04-25T02:29:17;5.87;;;3.20;;
9222;SDS011;7557;51.698;3.942;2023-04-25T02:31:46;8.63;;;3.73;;
9222;SDS011;7557;51.698;3.942;2023-04-25T02:34:13;6.20;;;3.03;;
9222;SDS011;7557;51.698;3.942;2023-04-25T02:36:40;5.00;;;3.20;;
9222;SDS011;7557;51.698;3.942;2023-04-25T02:39:07;6.37;;;3.03;;
9222;SDS011;7557;51.698;3.942;2023-04-25T02:41:35;7.27;;;3.13;;
9222;SDS011;7557;51.698;3.942;2023-04-25T02:44:02;9.27;;;3.07;;
9222;SDS011;7557;51.698;3.942;2023-04-25T02:46:30;5.07;;;3.00;;
9222;SDS011;7557;51.698;3.942;2023-04-25T02:48:58;7.17;;;3.23;;
9222;SDS011;7557;51.698;3.942;2023-04-25T02:51:30;7.87;;;3.40;;
9222;SDS011;7557;51.698;3.942;2023-04-25T02:53:58;7.70;;;3.13;;
9222;SDS011;7557;51.698;3.942;2023-04-25T02:56:25;5.47;;;3.43;;
9222;SDS011;7557;51.698;3.942;2023-04-25T02:58:53;8.57;;;3.93;;
9222;SDS011;7557;51.698;3.942;2023-04-25T03:01:20;10.03;;;3.67;;
9222;SDS011;7557;51.698;3.942;2023-04-25T03:03:47;8.17;;;3.57;;
9222;SDS011;7557;51.698;3.942;2023-04-25T03:06:16;5.20;;;3.47;;
9222;SDS011;7557;51.698;3.942;2023-04-25T03:08:43;9.67;;;3.40;;
9222;SDS011;7557;51.698;3.942;2023-04-25T03:11:11;7.50;;;3.13;;
9222;SDS011;7557;51.698;3.942;2023-04-25T03:13:38;7.90;;;3.07;;
9222;SDS011;7557;51.698;3.942;2023-04-25T03:16:05;3.50;;;2.50;;
9222;SDS011;7557;51.698;3.942;2023-04-25T03:18:32;8.50;;;3.10;;
9222;SDS011;7557;51.698;3.942;2023-04-25T03:21:00;11.63;;;4.03;;
9222;SDS011;7557;51.698;3.942;2023-04-25T03:23:29;6.10;;;2.83;;
9222;SDS011;7557;51.698;3.942;2023-04-25T03:25:56;9.77;;;3.50;;
9222;SDS011;7557;51.698;3.942;2023-04-25T03:28:23;9.10;;;3.30;;
9222;SDS011;7557;51.698;3.942;2023-04-25T03:30:50;5.57;;;3.30;;
9222;SDS011;7557;51.698;3.942;2023-04-25T03:33:17;5.73;;;3.17;;
9222;SDS011;7557;51.698;3.942;2023-04-25T03:35:45;6.43;;;3.07;;
9222;SDS011;7557;51.698;3.942;2023-04-25T03:38:12;7.30;;;3.40;;
9222;SDS011;7557;51.698;3.942;2023-04-25T03:40:41;6.97;;;3.43;;
9222;SDS011;7557;51.698;3.942;2023-04-25T03:43:08;8.00;;;3.20;;
9222;SDS011;7557;51.698;3.942;2023-04-25T03:45:36;8.77;;;3.43;;
9222;SDS011;7557;51.698;3.942;2023-04-25T03:48:03;9.23;;;3.23;;
9222;SDS011;7557;51.698;3.942;2023-04-25T03:50:31;7.70;;;3.47;;
9222;SDS011;7557;51.698;3.942;2023-04-25T03:52:58;9.73;;;3.17;;
9222;SDS011;7557;51.698;3.942;2023-04-25T03:55:25;10.30;;;3.50;;
9222;SDS011;7557;51.698;3.942;2023-04-25T03:57:54;10.87;;;4.53;;
9222;SDS011;7557;51.698;3.942;2023-04-25T04:00:23;10.40;;;3.80;;
9222;SDS011;7557;51.698;3.942;2023-04-25T04:02:50;10.20;;;4.07;;
9222;SDS011;7557;51.698;3.942;2023-04-25T04:05:18;9.50;;;3.57;;
9222;SDS011;7557;51.698;3.942;2023-04-25T04:07:45;9.53;;;4.00;;
9222;SDS011;7557;51.698;3.942;2023-04-25T04:10:12;5.47;;;3.43;;
9222;SDS011;7557;51.698;3.942;2023-04-25T04:12:39;7.50;;;3.10;;
9222;SDS011;7557;51.698;3.942;2023-04-25T04:15:08;10.30;;;2.80;;
9222;SDS011;7557;51.698;3.942;2023-04-25T04:17:37;5.10;;;2.40;;
9222;SDS011;7557;51.698;3.942;2023-04-25T04:20:05;5.30;;;2.93;;
9222;SDS011;7557;51.698;3.942;2023-04-25T04:22:33;4.03;;;2.17;;
9222;SDS011;7557;51.698;3.942;2023-04-25T04:25:01;8.33;;;2.70;;
9222;SDS011;7557;51.698;3.942;2023-04-25T04:27:31;6.83;;;2.73;;
9222;SDS011;7557;51.698;3.942;2023-04-25T04:29:59;7.53;;;3.23;;
9222;SDS011;7557;51.698;3.942;2023-04-25T04:32:29;5.37;;;2.77;;
9222;SDS011;7557;51.698;3.942;2023-04-25T04:34:58;3.23;;;2.30;;
9222;SDS011;7557;51.698;3.942;2023-04-25T04:37:25;7.63;;;3.33;;
9222;SDS011;7557;51.698;3.942;2023-04-25T04:39:53;6.97;;;2.90;;
9222;SDS011;7557;51.698;3.942;2023-04-25T04:42:20;7.00;;;2.40;;
9222;SDS011;7557;51.698;3.942;2023-04-25T04:44:49;8.17;;;2.30;;
9222;SDS011;7557;51.698;3.942;2023-04-25T04:47:17;3.37;;;2.50;;
9222;SDS011;7557;51.698;3.942;2023-04-25T04:49:47;6.63;;;2.37;;
9222;SDS011;7557;51.698;3.942;2023-04-25T04:52:15;4.00;;;2.10;;
9222;SDS011;7557;51.698;3.942;2023-04-25T04:54:42;4.30;;;2.03;;
9222;SDS011;7557;51.698;3.942;2023-04-25T04:57:09;4.53;;;2.23;;
9222;SDS011;7557;51.698;3.942;2023-04-25T04:59:37;1.47;;;1.37;;
9222;SDS011;7557;51.698;3.942;2023-04-25T05:02:05;5.00;;;2.10;;
9222;SDS011;7557;51.698;3.942;2023-04-25T05:04:32;4.83;;;1.80;;
9222;SDS011;7557;51.698;3.942;2023-04-25T05:07:00;5.60;;;2.50;;
9222;SDS011;7557;51.698;3.942;2023-04-25T05:09:28;1.77;;;1.67;;
9222;SDS011;7557;51.698;3.942;2023-04-25T05:11:56;4.07;;;1.63;;
9222;SDS011;7557;51.698;3.942;2023-04-25T05:14:23;4.17;;;1.93;;
9222;SDS011;7557;51.698;3.942;2023-04-25T05:16:50;2.77;;;2.57;;
9222;SDS011;7557;51.698;3.942;2023-04-25T05:19:18;5.10;;;1.90;;
9222;SDS011;7557;51.698;3.942;2023-04-25T05:21:45;2.23;;;2.03;;
9222;SDS011;7557;51.698;3.942;2023-04-25T05:24:14;4.50;;;1.90;;
9222;SDS011;7557;51.698;3.942;2023-04-25T05:26:42;5.63;;;1.93;;
9222;SDS011;7557;51.698;3.942;2023-04-25T05:29:09;7.93;;;2.30;;
9222;SDS011;7557;51.698;3.942;2023-04-25T05:31:36;2.80;;;2.13;;
9222;SDS011;7557;51.698;3.942;2023-04-25T05:34:03;2.37;;;1.83;;
9222;SDS011;7557;51.698;3.942;2023-04-25T05:36:31;4.27;;;2.10;;
9222;SDS011;7557;51.698;3.942;2023-04-25T05:38:58;4.93;;;2.20;;
9222;SDS011;7557;51.698;3.942;2023-04-25T05:41:27;4.50;;;2.53;;
9222;SDS011;7557;51.698;3.942;2023-04-25T05:43:54;3.73;;;2.30;;
9222;SDS011;7557;51.698;3.942;2023-04-25T05:46:21;5.90;;;2.00;;
9222;SDS011;7557;51.698;3.942;2023-04-25T05:48:48;5.17;;;2.27;;
9222;SDS011;7557;51.698;3.942;2023-04-25T05:51:15;4.63;;;2.00;;
9222;SDS011;7557;51.698;3.942;2023-04-25T05:53:43;8.30;;;2.40;;
9222;SDS011;7557;51.698;3.942;2023-04-25T05:56:10;5.23;;;2.30;;
9222;SDS011;7557;51.698;3.942;2023-04-25T05:58:40;8.00;;;2.37;;
9222;SDS011;7557;51.698;3.942;2023-04-25T06:01:07;5.10;;;2.07;;
9222;SDS011;7557;51.698;3.942;2023-04-25T06:03:35;6.47;;;2.10;;
9222;SDS011;7557;51.698;3.942;2023-04-25T06:06:03;4.73;;;2.77;;
9222;SDS011;7557;51.698;3.942;2023-04-25T06:08:31;4.40;;;2.20;;
9222;SDS011;7557;51.698;3.942;2023-04-25T06:10:58;6.53;;;2.50;;
9222;SDS011;7557;51.698;3.942;2023-04-25T06:13:25;9.23;;;2.90;;
9222;SDS011;7557;51.698;3.942;2023-04-25T06:15:54;3.93;;;2.20;;
9222;SDS011;7557;51.698;3.942;2023-04-25T06:18:21;5.20;;;2.30;;
9222;SDS011;7557;51.698;3.942;2023-04-25T06:20:48;7.70;;;2.07;;
9222;SDS011;7557;51.698;3.942;2023-04-25T06:23:16;5.30;;;2.67;;
9222;SDS011;7557;51.698;3.942;2023-04-25T06:25:43;3.20;;;1.80;;
9222;SDS011;7557;51.698;3.942;2023-04-25T06:28:10;3.43;;;2.00;;
9222;SDS011;7557;51.698;3.942;2023-04-25T06:30:37;7.33;;;2.50;;
9222;SDS011;7557;51.698;3.942;2023-04-25T06:33:06;3.23;;;1.77;;
9222;SDS011;7557;51.698;3.942;2023-04-25T06:35:34;4.83;;;2.40;;
9222;SDS011;7557;51.698;3.942;2023-04-25T06:38:01;10.67;;;2.37;;
9222;SDS011;7557;51.698;3.942;2023-04-25T06:40:28;4.80;;;1.87;;
9222;SDS011;7557;51.698;3.942;2023-04-25T06:42:55;4.03;;;1.80;;
9222;SDS011;7557;51.698;3.942;2023-04-25T06:45:23;6.63;;;1.97;;
9222;SDS011;7557;51.698;3.942;2023-04-25T06:47:50;5.70;;;2.47;;
9222;SDS011;7557;51.698;3.942;2023-04-25T06:50:19;4.10;;;2.00;;
9222;SDS011;7557;51.698;3.942;2023-04-25T06:52:46;2.07;;;1.20;;
9222;SDS011;7557;51.698;3.942;2023-04-25T06:55:13;4.37;;;1.73;;
9222;SDS011;7557;51.698;3.942;2023-04-25T06:57:41;7.20;;;1.90;;
9222;SDS011;7557;51.698;3.942;2023-04-25T07:00:08;2.93;;;1.53;;
9222;SDS011;7557;51.698;3.942;2023-04-25T07:02:36;4.10;;;2.20;;
9222;SDS011;7557;51.698;3.942;2023-04-25T07:05:03;3.77;;;1.67;;
9222;SDS011;7557;51.698;3.942;2023-04-25T07:07:32;5.77;;;2.30;;
9222;SDS011;7557;51.698;3.942;2023-04-25T07:10:00;6.37;;;2.23;;
9222;SDS011;7557;51.698;3.942;2023-04-25T07:12:27;5.13;;;1.90;;
9222;SDS011;7557;51.698;3.942;2023-04-25T07:14:54;6.00;;;2.77;;
9222;SDS011;7557;51.698;3.942;2023-04-25T07:17:21;8.37;;;2.67;;
9222;SDS011;7557;51.698;3.942;2023-04-25T07:19:48;4.73;;;1.90;;
9222;SDS011;7557;51.698;3.942;2023-04-25T07:22:15;5.00;;;1.90;;
9222;SDS011;7557;51.698;3.942;2023-04-25T07:24:44;5.77;;;1.93;;
9222;SDS011;7557;51.698;3.942;2023-04-25T07:27:13;3.63;;;1.87;;
9222;SDS011;7557;51.698;3.942;2023-04-25T07:29:41;3.80;;;1.60;;
9222;SDS011;7557;51.698;3.942;2023-04-25T07:32:08;3.23;;;1.40;;
9222;SDS011;7557;51.698;3.942;2023-04-25T07:34:36;5.23;;;1.90;;
9222;SDS011;7557;51.698;3.942;2023-04-25T07:37:04;2.37;;;1.40;;
9222;SDS011;7557;51.698;3.942;2023-04-25T07:39:31;4.90;;;2.07;;
9222;SDS011;7557;51.698;3.942;2023-04-25T07:42:00;1.77;;;1.10;;
9222;SDS011;7557;51.698;3.942;2023-04-25T07:44:27;6.87;;;1.10;;
9222;SDS011;7557;51.698;3.942;2023-04-25T07:46:55;2.13;;;0.90;;
9222;SDS011;7557;51.698;3.942;2023-04-25T07:49:22;1.60;;;0.90;;
9222;SDS011;7557;51.698;3.942;2023-04-25T07:51:50;3.07;;;1.10;;
9222;SDS011;7557;51.698;3.942;2023-04-25T07:54:17;2.70;;;1.20;;
9222;SDS011;7557;51.698;3.942;2023-04-25T07:56:44;2.10;;;1.00;;
9222;SDS011;7557;51.698;3.942;2023-04-25T07:59:13;1.60;;;0.93;;
9222;SDS011;7557;51.698;3.942;2023-04-25T08:01:40;3.60;;;1.13;;
9222;SDS011;7557;51.698;3.942;2023-04-25T08:04:10;0.90;;;0.90;;
9222;SDS011;7557;51.698;3.942;2023-04-25T08:06:37;5.13;;;1.20;;
9222;SDS011;7557;51.698;3.942;2023-04-25T08:09:05;6.70;;;1.33;;
9222;SDS011;7557;51.698;3.942;2023-04-25T08:11:33;3.00;;;1.23;;
9222;SDS011;7557;51.698;3.942;2023-04-25T08:14:01;7.10;;;2.10;;
9222;SDS011;7557;51.698;3.942;2023-04-25T08:16:30;2.10;;;1.93;;
9222;SDS011;7557;51.698;3.942;2023-04-25T08:18:58;2.40;;;1.33;;
9222;SDS011;7557;51.698;3.942;2023-04-25T08:21:25;1.03;;;1.03;;
9222;SDS011;7557;51.698;3.942;2023-04-25T08:23:53;2.57;;;1.37;;
9222;SDS011;7557;51.698;3.942;2023-04-25T08:26:20;2.73;;;1.37;;
9222;SDS011;7557;51.698;3.942;2023-04-25T08:28:47;2.33;;;1.73;;
9222;SDS011;7557;51.698;3.942;2023-04-25T08:31:14;3.50;;;1.43;;
9222;SDS011;7557;51.698;3.942;2023-04-25T08:33:43;5.43;;;1.87;;
9222;SDS011;7557;51.698;3.942;2023-04-25T08:36:10;2.53;;;1.10;;
9222;SDS011;7557;51.698;3.942;2023-04-25T08:38:38;2.13;;;1.20;;
9222;SDS011;7557;51.698;3.942;2023-04-25T08:41:05;4.30;;;1.30;;
9222;SDS011;7557;51.698;3.942;2023-04-25T08:43:33;2.47;;;1.10;;
9222;SDS011;7557;51.698;3.942;2023-04-25T08:46:01;1.20;;;1.03;;
9222;SDS011;7557;51.698;3.942;2023-04-25T08:48:29;3.37;;;1.33;;
9222;SDS011;7557;51.698;3.942;2023-04-25T08:51:01;1.27;;;1.10;;
9222;SDS011;7557;51.698;3.942;2023-04-25T08:53:30;4.43;;;1.33;;
9222;SDS011;7557;51.698;3.942;2023-04-25T08:55:58;3.53;;;1.40;;
9222;SDS011;7557;51.698;3.942;2023-04-25T08:58:27;3.60;;;1.30;;
9222;SDS011;7557;51.698;3.942;2023-04-25T09:00:54;1.70;;;1.60;;
9222;SDS011;7557;51.698;3.942;2023-04-25T09:03:22;4.87;;;1.47;;
9222;SDS011;7557;51.698;3.942;2023-04-25T09:05:49;5.27;;;1.40;;
9222;SDS011;7557;51.698;3.942;2023-04-25T09:08:19;2.63;;;1.23;;
9222;SDS011;7557;51.698;3.942;2023-04-25T09:10:47;5.17;;;1.50;;
9222;SDS011;7557;51.698;3.942;2023-04-25T09:13:14;3.53;;;1.63;;
9222;SDS011;7557;51.698;3.942;2023-04-25T09:15:50;5.13;;;1.60;;
9222;SDS011;7557;51.698;3.942;2023-04-25T09:18:24;3.33;;;1.57;;
9222;SDS011;7557;51.698;3.942;2023-04-25T09:20:52;4.80;;;1.33;;
9222;SDS011;7557;51.698;3.942;2023-04-25T09:23:22;3.20;;;1.63;;
9222;SDS011;7557;51.698;3.942;2023-04-25T09:25:51;2.13;;;1.60;;
9222;SDS011;7557;51.698;3.942;2023-04-25T09:28:22;4.30;;;1.70;;
9222;SDS011;7557;51.698;3.942;2023-04-25T09:30:54;4.93;;;1.73;;
9222;SDS011;7557;51.698;3.942;2023-04-25T09:33:26;2.73;;;1.80;;
9222;SDS011;7557;51.698;3.942;2023-04-25T09:36:01;3.97;;;1.87;;
9222;SDS011;7557;51.698;3.942;2023-04-25T09:38:31;7.13;;;1.60;;
9222;SDS011;7557;51.698;3.942;2023-04-25T09:40:59;4.97;;;1.40;;
9222;SDS011;7557;51.698;3.942;2023-04-25T09:43:27;1.40;;;1.30;;
9222;SDS011;7557;51.698;3.942;2023-04-25T09:45:54;4.23;;;1.50;;
9222;SDS011;7557;51.698;3.942;2023-04-25T09:48:24;3.20;;;1.50;;
9222;SDS011;7557;51.698;3.942;2023-04-25T09:51:05;6.10;;;1.67;;
9222;SDS011;7557;51.698;3.942;2023-04-25T09:53:35;2.93;;;1.67;;
9222;SDS011;7557;51.698;3.942;2023-04-25T09:56:04;3.40;;;1.43;;
9222;SDS011;7557;51.698;3.942;2023-04-25T09:58:33;3.07;;;1.70;;
9222;SDS011;7557;51.698;3.942;2023-04-25T10:01:02;3.20;;;1.30;;
9222;SDS011;7557;51.698;3.942;2023-04-25T10:03:31;5.37;;;1.50;;
9222;SDS011;7557;51.698;3.942;2023-04-25T10:06:01;4.40;;;1.50;;
9222;SDS011;7557;51.698;3.942;2023-04-25T10:08:31;5.60;;;1.37;;
9222;SDS011;7557;51.698;3.942;2023-04-25T10:11:01;6.57;;;1.30;;
9222;SDS011;7557;51.698;3.942;2023-04-25T10:13:30;6.13;;;1.27;;
9222;SDS011;7557;51.698;3.942;2023-04-25T10:15:58;5.37;;;1.53;;
9222;SDS011;7557;51.698;3.942;2023-04-25T10:18:27;2.47;;;1.23;;
9222;SDS011;7557;51.698;3.942;2023-04-25T10:20:56;1.30;;;1.20;;
9222;SDS011;7557;51.698;3.942;2023-04-25T10:23:25;2.27;;;1.50;;
9222;SDS011;7557;51.698;3.942;2023-04-25T10:25:52;3.20;;;1.20;;
9222;SDS011;7557;51.698;3.942;2023-04-25T10:28:22;4.60;;;1.47;;
9222;SDS011;7557;51.698;3.942;2023-04-25T10:30:58;3.63;;;1.53;;
9222;SDS011;7557;51.698;3.942;2023-04-25T10:33:29;3.60;;;1.67;;
9222;SDS011;7557;51.698;3.942;2023-04-25T10:36:08;3.10;;;1.43;;
9222;SDS011;7557;51.698;3.942;2023-04-25T10:38:36;3.70;;;1.23;;
9222;SDS011;7557;51.698;3.942;2023-04-25T10:41:04;2.80;;;1.37;;
9222;SDS011;7557;51.698;3.942;2023-04-25T10:43:35;5.60;;;1.63;;
9222;SDS011;7557;51.698;3.942;2023-04-25T10:46:12;1.53;;;1.43;;
9222;SDS011;7557;51.698;3.942;2023-04-25T10:48:45;4.20;;;1.20;;
9222;SDS011;7557;51.698;3.942;2023-04-25T10:51:16;3.70;;;1.00;;
9222;SDS011;7557;51.698;3.942;2023-04-25T10:53:45;1.73;;;0.97;;
9222;SDS011;7557;51.698;3.942;2023-04-25T10:56:16;5.23;;;1.43;;
9222;SDS011;7557;51.698;3.942;2023-04-25T10:58:47;3.87;;;1.90;;
9222;SDS011;7557;51.698;3.942;2023-04-25T11:01:15;4.83;;;1.30;;
9222;SDS011;7557;51.698;3.942;2023-04-25T11:03:46;2.43;;;1.30;;
9222;SDS011;7557;51.698;3.942;2023-04-25T11:06:18;7.80;;;1.80;;
9222;SDS011;7557;51.698;3.942;2023-04-25T11:08:49;2.73;;;1.40;;
9222;SDS011;7557;51.698;3.942;2023-04-25T11:11:17;3.90;;;1.50;;
9222;SDS011;7557;51.698;3.942;2023-04-25T11:13:48;7.43;;;2.40;;
9222;SDS011;7557;51.698;3.942;2023-04-25T11:16:16;3.97;;;1.60;;
9222;SDS011;7557;51.698;3.942;2023-04-25T11:18:43;3.77;;;1.50;;
9222;SDS011;7557;51.698;3.942;2023-04-25T11:21:11;3.53;;;1.80;;
9222;SDS011;7557;51.698;3.942;2023-04-25T11:23:38;4.53;;;1.80;;
9222;SDS011;7557;51.698;3.942;2023-04-25T11:26:05;4.30;;;2.07;;
9222;SDS011;7557;51.698;3.942;2023-04-25T11:28:33;5.17;;;2.50;;
9222;SDS011;7557;51.698;3.942;2023-04-25T11:31:03;3.07;;;1.53;;
9222;SDS011;7557;51.698;3.942;2023-04-25T11:33:31;4.10;;;1.63;;
9222;SDS011;7557;51.698;3.942;2023-04-25T11:35:59;4.17;;;1.70;;
9222;SDS011;7557;51.698;3.942;2023-04-25T11:38:26;4.20;;;1.70;;
9222;SDS011;7557;51.698;3.942;2023-04-25T11:40:54;3.30;;;1.67;;
9222;SDS011;7557;51.698;3.942;2023-04-25T11:43:21;3.63;;;1.27;;
9222;SDS011;7557;51.698;3.942;2023-04-25T11:45:49;4.60;;;1.93;;
9222;SDS011;7557;51.698;3.942;2023-04-25T11:48:19;10.27;;;2.30;;
9222;SDS011;7557;51.698;3.942;2023-04-25T11:50:46;5.57;;;1.40;;
9222;SDS011;7557;51.698;3.942;2023-04-25T11:53:13;6.60;;;2.80;;
9222;SDS011;7557;51.698;3.942;2023-04-25T11:55:40;3.63;;;1.50;;
9222;SDS011;7557;51.698;3.942;2023-04-25T11:58:08;2.30;;;1.40;;
9222;SDS011;7557;51.698;3.942;2023-04-25T12:00:35;5.00;;;1.73;;
9222;SDS011;7557;51.698;3.942;2023-04-25T12:03:02;3.13;;;1.60;;
9222;SDS011;7557;51.698;3.942;2023-04-25T12:05:31;4.03;;;1.87;;
9222;SDS011;7557;51.698;3.942;2023-04-25T12:08:11;2.87;;;0.97;;
9222;SDS011;7557;51.698;3.942;2023-04-25T12:10:39;3.23;;;2.03;;
9222;SDS011;7557;51.698;3.942;2023-04-25T12:13:17;5.03;;;1.80;;
9222;SDS011;7557;51.698;3.942;2023-04-25T12:15:46;4.83;;;1.60;;
9222;SDS011;7557;51.698;3.942;2023-04-25T12:18:14;1.97;;;1.40;;
9222;SDS011;7557;51.698;3.942;2023-04-25T12:20:42;3.73;;;1.77;;
9222;SDS011;7557;51.698;3.942;2023-04-25T12:23:09;1.67;;;1.23;;
9222;SDS011;7557;51.698;3.942;2023-04-25T12:25:38;3.53;;;1.30;;
9222;SDS011;7557;51.698;3.942;2023-04-25T12:28:10;4.30;;;1.57;;
9222;SDS011;7557;51.698;3.942;2023-04-25T12:33:25;2.20;;;1.30;;
9222;SDS011;7557;51.698;3.942;2023-04-25T12:35:54;3.57;;;1.70;;
9222;SDS011;7557;51.698;3.942;2023-04-25T12:38:23;5.90;;;1.50;;
9222;SDS011;7557;51.698;3.942;2023-04-25T12:40:50;3.43;;;1.40;;
9222;SDS011;7557;51.698;3.942;2023-04-25T12:43:18;1.77;;;1.10;;
9222;SDS011;7557;51.698;3.942;2023-04-25T12:45:47;2.53;;;1.20;;
9222;SDS011;7557;51.698;3.942;2023-04-25T12:48:15;7.23;;;1.47;;
9222;SDS011;7557;51.698;3.942;2023-04-25T12:50:42;4.20;;;1.80;;
9222;SDS011;7557;51.698;3.942;2023-04-25T12:53:12;6.23;;;1.83;;
9222;SDS011;7557;51.698;3.942;2023-04-25T12:55:42;4.87;;;1.57;;
9222;SDS011;7557;51.698;3.942;2023-04-25T12:58:11;4.27;;;1.50;;
9222;SDS011;7557;51.698;3.942;2023-04-25T13:00:38;3.50;;;1.87;;
9222;SDS011;7557;51.698;3.942;2023-04-25T13:03:06;2.80;;;1.30;;
9222;SDS011;7557;51.698;3.942;2023-04-25T13:05:33;4.03;;;1.50;;
9222;SDS011;7557;51.698;3.942;2023-04-25T13:08:01;2.03;;;1.13;;
9222;SDS011;7557;51.698;3.942;2023-04-25T13:10:29;3.07;;;2.10;;
9222;SDS011;7557;51.698;3.942;2023-04-25T13:12:58;4.13;;;1.63;;
9222;SDS011;7557;51.698;3.942;2023-04-25T13:15:27;1.80;;;1.57;;
9222;SDS011;7557;51.698;3.942;2023-04-25T13:17:55;4.70;;;2.60;;
9222;SDS011;7557;51.698;3.942;2023-04-25T13:20:22;2.27;;;1.70;;
9222;SDS011;7557;51.698;3.942;2023-04-25T13:22:50;4.60;;;1.63;;
9222;SDS011;7557;51.698;3.942;2023-04-25T13:25:17;8.90;;;1.83;;
9222;SDS011;7557;51.698;3.942;2023-04-25T13:27:46;4.37;;;2.27;;
9222;SDS011;7557;51.698;3.942;2023-04-25T13:30:13;3.80;;;1.70;;
9222;SDS011;7557;51.698;3.942;2023-04-25T13:32:40;4.23;;;1.80;;
9222;SDS011;7557;51.698;3.942;2023-04-25T13:35:08;2.77;;;1.63;;
9222;SDS011;7557;51.698;3.942;2023-04-25T13:37:37;4.93;;;1.80;;
9222;SDS011;7557;51.698;3.942;2023-04-25T13:40:05;4.33;;;1.33;;
9222;SDS011;7557;51.698;3.942;2023-04-25T13:42:34;3.60;;;1.80;;
9222;SDS011;7557;51.698;3.942;2023-04-25T13:45:03;4.40;;;1.90;;
9222;SDS011;7557;51.698;3.942;2023-04-25T13:47:30;3.10;;;1.80;;
9222;SDS011;7557;51.698;3.942;2023-04-25T13:49:58;3.40;;;1.63;;
9222;SDS011;7557;51.698;3.942;2023-04-25T13:52:25;2.70;;;1.97;;
9222;SDS011;7557;51.698;3.942;2023-04-25T13:54:52;7.87;;;2.23;;
9222;SDS011;7557;51.698;3.942;2023-04-25T13:57:19;3.10;;;2.03;;
9222;SDS011;7557;51.698;3.942;2023-04-25T13:59:47;1.47;;;1.37;;
9222;SDS011;7557;51.698;3.942;2023-04-25T14:02:15;3.40;;;1.63;;
9222;SDS011;7557;51.698;3.942;2023-04-25T14:04:43;7.10;;;2.20;;
9222;SDS011;7557;51.698;3.942;2023-04-25T14:07:10;4.23;;;1.50;;
9222;SDS011;7557;51.698;3.942;2023-04-25T14:09:37;6.83;;;1.80;;
9222;SDS011;7557;51.698;3.942;2023-04-25T14:12:04;1.87;;;1.70;;
9222;SDS011;7557;51.698;3.942;2023-04-25T14:14:32;1.73;;;1.40;;
9222;SDS011;7557;51.698;3.942;2023-04-25T14:16:59;1.73;;;1.40;;
9222;SDS011;7557;51.698;3.942;2023-04-25T14:19:28;5.67;;;1.43;;
9222;SDS011;7557;51.698;3.942;2023-04-25T14:21:55;2.03;;;1.57;;
9222;SDS011;7557;51.698;3.942;2023-04-25T14:24:22;2.80;;;1.57;;
9222;SDS011;7557;51.698;3.942;2023-04-25T14:26:50;3.30;;;1.87;;
9222;SDS011;7557;51.698;3.942;2023-04-25T14:29:17;3.13;;;1.73;;
9222;SDS011;7557;51.698;3.942;2023-04-25T14:31:44;3.23;;;2.17;;
9222;SDS011;7557;51.698;3.942;2023-04-25T14:34:12;4.13;;;2.00;;
9222;SDS011;7557;51.698;3.942;2023-04-25T14:36:40;3.37;;;2.00;;
9222;SDS011;7557;51.698;3.942;2023-04-25T14:39:08;3.43;;;1.97;;
9222;SDS011;7557;51.698;3.942;2023-04-25T14:41:35;2.10;;;1.90;;
9222;SDS011;7557;51.698;3.942;2023-04-25T14:44:02;4.97;;;2.07;;
9222;SDS011;7557;51.698;3.942;2023-04-25T14:46:30;4.30;;;1.77;;
9222;SDS011;7557;51.698;3.942;2023-04-25T14:48:57;3.30;;;1.70;;
9222;SDS011;7557;51.698;3.942;2023-04-25T14:51:24;5.13;;;1.63;;
9222;SDS011;7557;51.698;3.942;2023-04-25T14:53:55;4.83;;;1.70;;
9222;SDS011;7557;51.698;3.942;2023-04-25T14:56:24;2.37;;;1.70;;
9222;SDS011;7557;51.698;3.942;2023-04-25T14:58:51;2.70;;;1.80;;
9222;SDS011;7557;51.698;3.942;2023-04-25T15:01:18;4.73;;;1.63;;
9222;SDS011;7557;51.698;3.942;2023-04-25T15:03:46;2.30;;;1.67;;
9222;SDS011;7557;51.698;3.942;2023-04-25T15:06:14;4.20;;;1.70;;
9222;SDS011;7557;51.698;3.942;2023-04-25T15:08:41;3.23;;;1.60;;
9222;SDS011;7557;51.698;3.942;2023-04-25T15:11:10;6.97;;;1.40;;
9222;SDS011;7557;51.698;3.942;2023-04-25T15:13:37;2.63;;;1.47;;
9222;SDS011;7557;51.698;3.942;2023-04-25T15:16:05;3.33;;;1.40;;
9222;SDS011;7557;51.698;3.942;2023-04-25T15:18:32;3.87;;;1.63;;
9222;SDS011;7557;51.698;3.942;2023-04-25T15:20:59;3.17;;;1.30;;
9222;SDS011;7557;51.698;3.942;2023-04-25T15:23:26;2.30;;;1.20;;
9222;SDS011;7557;51.698;3.942;2023-04-25T15:25:54;1.40;;;1.30;;